sensor_id;sensor_type;location;lat;lon;timestamp;P1;durP1;ratioP1;P2;durP2;ratioP2
2129;SDS011;1071;52.544;13.374;2023-05-31T00:00:17;4.03;;;3.67;;
2129;SDS011;1071;52.544;13.374;2023-05-31T00:02:45;4.03;;;3.40;;
2129;SDS011;1071;52.544;13.374;2023-05-31T00:05:12;4.17;;;2.93;;
2129;SDS011;1071;52.544;13.374;2023-05-31T00:07:39;4.47;;;2.97;;
2129;SDS011;1071;52.544;13.374;2023-05-31T00:10:07;2.63;;;2.40;;
2129;SDS011;1071;52.544;13.374;2023-05-31T00:12:35;2.43;;;2.23;;
2129;SDS011;1071;52.544;13.374;2023-05-31T00:15:04;2.93;;;2.40;;
2129;SDS011;1071;52.544;13.374;2023-05-31T00:17:32;4.00;;;2.70;;
2129;SDS011;1071;52.544;13.374;2023-05-31T00:19:59;8.00;;;2.17;;
2129;SDS011;1071;52.544;13.374;2023-05-31T00:22:26;2.73;;;2.43;;
2129;SDS011;1071;52.544;13.374;2023-05-31T00:24:53;1.83;;;1.73;;
2129;SDS011;1071;52.544;13.374;2023-05-31T00:27:20;3.53;;;3.23;;
2129;SDS011;1071;52.544;13.374;2023-05-31T00:29:47;3.43;;;2.63;;
2129;SDS011;1071;52.544;13.374;2023-05-31T00:32:16;2.60;;;1.90;;
2129;SDS011;1071;52.544;13.374;2023-05-31T00:34:43;6.57;;;2.53;;
2129;SDS011;1071;52.544;13.374;2023-05-31T00:37:11;4.97;;;2.17;;
2129;SDS011;1071;52.544;13.374;2023-05-31T00:39:37;2.23;;;1.73;;
2129;SDS011;1071;52.544;13.374;2023-05-31T00:42:05;2.97;;;2.10;;
2129;SDS011;1071;52.544;13.374;2023-05-31T00:44:33;2.93;;;2.00;;
2129;SDS011;1071;52.544;13.374;2023-05-31T00:47:00;4.40;;;2.70;;
2129;SDS011;1071;52.544;13.374;2023-05-31T00:49:28;3.33;;;1.93;;
2129;SDS011;1071;52.544;13.374;2023-05-31T00:51:56;5.73;;;2.80;;
2129;SDS011;1071;52.544;13.374;2023-05-31T00:54:26;2.53;;;2.30;;
2129;SDS011;1071;52.544;13.374;2023-05-31T00:56:59;3.20;;;2.50;;
2129;SDS011;1071;52.544;13.374;2023-05-31T00:59:26;2.90;;;1.93;;
2129;SDS011;1071;52.544;13.374;2023-05-31T01:01:54;2.33;;;2.13;;
2129;SDS011;1071;52.544;13.374;2023-05-31T01:04:23;2.80;;;2.30;;
2129;SDS011;1071;52.544;13.374;2023-05-31T01:06:52;3.10;;;2.10;;
2129;SDS011;1071;52.544;13.374;2023-05-31T01:09:21;3.47;;;2.00;;
2129;SDS011;1071;52.544;13.374;2023-05-31T01:11:55;8.00;;;2.27;;
2129;SDS011;1071;52.544;13.374;2023-05-31T01:14:30;3.70;;;2.20;;
2129;SDS011;1071;52.544;13.374;2023-05-31T01:17:09;6.50;;;3.03;;
2129;SDS011;1071;52.544;13.374;2023-05-31T01:19:45;3.37;;;3.07;;
2129;SDS011;1071;52.544;13.374;2023-05-31T01:22:19;6.00;;;2.47;;
2129;SDS011;1071;52.544;13.374;2023-05-31T01:24:57;5.63;;;3.03;;
2129;SDS011;1071;52.544;13.374;2023-05-31T01:27:39;2.97;;;2.07;;
2129;SDS011;1071;52.544;13.374;2023-05-31T01:30:09;2.43;;;2.17;;
2129;SDS011;1071;52.544;13.374;2023-05-31T01:32:37;2.93;;;2.10;;
2129;SDS011;1071;52.544;13.374;2023-05-31T01:35:05;2.60;;;2.40;;
2129;SDS011;1071;52.544;13.374;2023-05-31T01:37:32;5.37;;;2.03;;
2129;SDS011;1071;52.544;13.374;2023-05-31T01:39:59;3.00;;;2.50;;
2129;SDS011;1071;52.544;13.374;2023-05-31T01:42:29;4.80;;;2.13;;
2129;SDS011;1071;52.544;13.374;2023-05-31T01:44:58;3.43;;;2.30;;
2129;SDS011;1071;52.544;13.374;2023-05-31T01:47:26;5.20;;;2.30;;
2129;SDS011;1071;52.544;13.374;2023-05-31T01:49:57;2.57;;;2.13;;
2129;SDS011;1071;52.544;13.374;2023-05-31T01:55:11;5.00;;;2.90;;
2129;SDS011;1071;52.544;13.374;2023-05-31T01:57:39;3.17;;;2.87;;
2129;SDS011;1071;52.544;13.374;2023-05-31T02:00:11;3.27;;;2.27;;
2129;SDS011;1071;52.544;13.374;2023-05-31T02:02:40;4.23;;;2.57;;
2129;SDS011;1071;52.544;13.374;2023-05-31T02:05:08;2.50;;;2.30;;
2129;SDS011;1071;52.544;13.374;2023-05-31T02:07:37;5.73;;;2.20;;
2129;SDS011;1071;52.544;13.374;2023-05-31T02:10:08;4.70;;;2.27;;
2129;SDS011;1071;52.544;13.374;2023-05-31T02:12:37;4.43;;;2.80;;
2129;SDS011;1071;52.544;13.374;2023-05-31T02:15:05;6.30;;;2.80;;
2129;SDS011;1071;52.544;13.374;2023-05-31T02:17:37;3.30;;;2.67;;
2129;SDS011;1071;52.544;13.374;2023-05-31T02:20:06;3.80;;;2.47;;
2129;SDS011;1071;52.544;13.374;2023-05-31T02:22:35;3.43;;;2.50;;
2129;SDS011;1071;52.544;13.374;2023-05-31T02:25:02;3.03;;;2.33;;
2129;SDS011;1071;52.544;13.374;2023-05-31T02:27:30;3.97;;;2.73;;
2129;SDS011;1071;52.544;13.374;2023-05-31T02:29:57;2.80;;;2.60;;
2129;SDS011;1071;52.544;13.374;2023-05-31T02:32:24;2.30;;;1.90;;
2129;SDS011;1071;52.544;13.374;2023-05-31T02:34:52;4.97;;;2.23;;
2129;SDS011;1071;52.544;13.374;2023-05-31T02:37:20;3.33;;;2.57;;
2129;SDS011;1071;52.544;13.374;2023-05-31T02:39:47;3.70;;;2.40;;
2129;SDS011;1071;52.544;13.374;2023-05-31T02:42:14;3.67;;;2.00;;
2129;SDS011;1071;52.544;13.374;2023-05-31T02:44:41;8.57;;;5.97;;
2129;SDS011;1071;52.544;13.374;2023-05-31T02:47:08;5.17;;;3.43;;
2129;SDS011;1071;52.544;13.374;2023-05-31T02:49:35;11.03;;;2.23;;
2129;SDS011;1071;52.544;13.374;2023-05-31T02:52:04;3.70;;;2.70;;
2129;SDS011;1071;52.544;13.374;2023-05-31T02:54:31;5.03;;;2.33;;
2129;SDS011;1071;52.544;13.374;2023-05-31T02:56:58;4.27;;;2.30;;
2129;SDS011;1071;52.544;13.374;2023-05-31T02:59:26;3.63;;;2.23;;
2129;SDS011;1071;52.544;13.374;2023-05-31T03:01:54;2.57;;;2.37;;
2129;SDS011;1071;52.544;13.374;2023-05-31T03:04:21;3.70;;;2.70;;
2129;SDS011;1071;52.544;13.374;2023-05-31T03:06:48;6.50;;;3.07;;
2129;SDS011;1071;52.544;13.374;2023-05-31T03:09:17;6.40;;;2.60;;
2129;SDS011;1071;52.544;13.374;2023-05-31T03:11:44;3.70;;;2.40;;
2129;SDS011;1071;52.544;13.374;2023-05-31T03:14:11;5.30;;;2.57;;
2129;SDS011;1071;52.544;13.374;2023-05-31T03:16:38;3.93;;;2.40;;
2129;SDS011;1071;52.544;13.374;2023-05-31T03:19:06;2.80;;;1.77;;
2129;SDS011;1071;52.544;13.374;2023-05-31T03:21:33;3.83;;;2.10;;
2129;SDS011;1071;52.544;13.374;2023-05-31T03:24:01;2.83;;;2.53;;
2129;SDS011;1071;52.544;13.374;2023-05-31T03:26:29;5.03;;;2.70;;
2129;SDS011;1071;52.544;13.374;2023-05-31T03:28:56;3.00;;;2.40;;
2129;SDS011;1071;52.544;13.374;2023-05-31T03:31:23;7.33;;;2.30;;
2129;SDS011;1071;52.544;13.374;2023-05-31T03:33:55;3.57;;;2.47;;
2129;SDS011;1071;52.544;13.374;2023-05-31T03:36:22;4.17;;;2.73;;
2129;SDS011;1071;52.544;13.374;2023-05-31T03:38:49;4.77;;;3.37;;
2129;SDS011;1071;52.544;13.374;2023-05-31T03:41:16;4.13;;;2.30;;
2129;SDS011;1071;52.544;13.374;2023-05-31T03:43:45;4.30;;;2.67;;
2129;SDS011;1071;52.544;13.374;2023-05-31T03:46:12;3.97;;;2.30;;
2129;SDS011;1071;52.544;13.374;2023-05-31T03:48:42;3.27;;;2.37;;
2129;SDS011;1071;52.544;13.374;2023-05-31T03:51:09;3.20;;;2.30;;
2129;SDS011;1071;52.544;13.374;2023-05-31T03:53:36;4.87;;;2.90;;
2129;SDS011;1071;52.544;13.374;2023-05-31T03:56:04;3.20;;;2.50;;
2129;SDS011;1071;52.544;13.374;2023-05-31T03:58:34;6.40;;;3.40;;
2129;SDS011;1071;52.544;13.374;2023-05-31T04:01:02;8.27;;;3.10;;
2129;SDS011;1071;52.544;13.374;2023-05-31T04:03:31;3.33;;;3.03;;
2129;SDS011;1071;52.544;13.374;2023-05-31T04:06:00;4.67;;;2.13;;
2129;SDS011;1071;52.544;13.374;2023-05-31T04:08:27;4.53;;;2.97;;
2129;SDS011;1071;52.544;13.374;2023-05-31T04:10:57;4.80;;;2.50;;
2129;SDS011;1071;52.544;13.374;2023-05-31T04:13:27;4.70;;;2.90;;
2129;SDS011;1071;52.544;13.374;2023-05-31T04:15:56;3.93;;;2.90;;
2129;SDS011;1071;52.544;13.374;2023-05-31T04:18:25;8.43;;;3.03;;
2129;SDS011;1071;52.544;13.374;2023-05-31T04:20:52;3.67;;;2.97;;
2129;SDS011;1071;52.544;13.374;2023-05-31T04:23:19;7.13;;;2.93;;
2129;SDS011;1071;52.544;13.374;2023-05-31T04:25:46;5.27;;;2.60;;
2129;SDS011;1071;52.544;13.374;2023-05-31T04:28:14;4.30;;;2.67;;
2129;SDS011;1071;52.544;13.374;2023-05-31T04:30:44;5.50;;;3.43;;
2129;SDS011;1071;52.544;13.374;2023-05-31T04:33:11;4.20;;;3.27;;
2129;SDS011;1071;52.544;13.374;2023-05-31T04:35:39;4.03;;;2.93;;
2129;SDS011;1071;52.544;13.374;2023-05-31T04:38:08;4.10;;;2.40;;
2129;SDS011;1071;52.544;13.374;2023-05-31T04:40:35;6.13;;;3.57;;
2129;SDS011;1071;52.544;13.374;2023-05-31T04:43:05;3.33;;;2.97;;
2129;SDS011;1071;52.544;13.374;2023-05-31T04:45:35;3.97;;;2.60;;
2129;SDS011;1071;52.544;13.374;2023-05-31T04:48:03;2.97;;;2.63;;
2129;SDS011;1071;52.544;13.374;2023-05-31T04:50:30;2.93;;;2.70;;
2129;SDS011;1071;52.544;13.374;2023-05-31T04:52:59;3.30;;;2.63;;
2129;SDS011;1071;52.544;13.374;2023-05-31T04:55:27;3.43;;;2.67;;
2129;SDS011;1071;52.544;13.374;2023-05-31T04:57:54;3.60;;;2.73;;
2129;SDS011;1071;52.544;13.374;2023-05-31T05:00:21;3.93;;;2.77;;
2129;SDS011;1071;52.544;13.374;2023-05-31T05:02:48;3.40;;;3.03;;
2129;SDS011;1071;52.544;13.374;2023-05-31T05:05:15;3.73;;;2.47;;
2129;SDS011;1071;52.544;13.374;2023-05-31T05:07:43;3.13;;;2.50;;
2129;SDS011;1071;52.544;13.374;2023-05-31T05:10:11;5.83;;;3.73;;
2129;SDS011;1071;52.544;13.374;2023-05-31T05:12:38;5.60;;;3.00;;
2129;SDS011;1071;52.544;13.374;2023-05-31T05:15:05;5.60;;;3.43;;
2129;SDS011;1071;52.544;13.374;2023-05-31T05:17:34;6.53;;;3.20;;
2129;SDS011;1071;52.544;13.374;2023-05-31T05:20:01;5.37;;;3.90;;
2129;SDS011;1071;52.544;13.374;2023-05-31T05:22:35;6.80;;;3.70;;
2129;SDS011;1071;52.544;13.374;2023-05-31T05:25:02;3.70;;;2.93;;
2129;SDS011;1071;52.544;13.374;2023-05-31T05:27:31;4.33;;;2.67;;
2129;SDS011;1071;52.544;13.374;2023-05-31T05:29:58;3.93;;;2.50;;
2129;SDS011;1071;52.544;13.374;2023-05-31T05:32:25;4.60;;;3.17;;
2129;SDS011;1071;52.544;13.374;2023-05-31T05:34:52;3.93;;;2.60;;
2129;SDS011;1071;52.544;13.374;2023-05-31T05:37:22;6.47;;;2.87;;
2129;SDS011;1071;52.544;13.374;2023-05-31T05:39:49;3.00;;;2.50;;
2129;SDS011;1071;52.544;13.374;2023-05-31T05:42:16;3.80;;;2.60;;
2129;SDS011;1071;52.544;13.374;2023-05-31T05:44:45;4.57;;;2.00;;
2129;SDS011;1071;52.544;13.374;2023-05-31T05:47:13;2.73;;;2.10;;
2129;SDS011;1071;52.544;13.374;2023-05-31T05:49:40;3.70;;;1.90;;
2129;SDS011;1071;52.544;13.374;2023-05-31T05:52:07;3.40;;;2.57;;
2129;SDS011;1071;52.544;13.374;2023-05-31T05:54:34;3.27;;;3.00;;
2129;SDS011;1071;52.544;13.374;2023-05-31T05:57:02;5.93;;;3.70;;
2129;SDS011;1071;52.544;13.374;2023-05-31T05:59:29;4.80;;;3.40;;
2129;SDS011;1071;52.544;13.374;2023-05-31T06:01:58;3.73;;;2.23;;
2129;SDS011;1071;52.544;13.374;2023-05-31T06:04:38;3.93;;;2.90;;
2129;SDS011;1071;52.544;13.374;2023-05-31T06:07:05;4.20;;;2.80;;
2129;SDS011;1071;52.544;13.374;2023-05-31T06:09:34;3.90;;;3.13;;
2129;SDS011;1071;52.544;13.374;2023-05-31T06:12:01;4.03;;;2.83;;
2129;SDS011;1071;52.544;13.374;2023-05-31T06:14:28;4.23;;;2.70;;
2129;SDS011;1071;52.544;13.374;2023-05-31T06:16:55;2.43;;;2.20;;
2129;SDS011;1071;52.544;13.374;2023-05-31T06:19:26;4.20;;;3.43;;
2129;SDS011;1071;52.544;13.374;2023-05-31T06:21:53;3.67;;;2.50;;
2129;SDS011;1071;52.544;13.374;2023-05-31T06:24:23;3.43;;;2.63;;
2129;SDS011;1071;52.544;13.374;2023-05-31T06:26:50;5.30;;;2.80;;
2129;SDS011;1071;52.544;13.374;2023-05-31T06:29:19;3.73;;;3.40;;
2129;SDS011;1071;52.544;13.374;2023-05-31T06:31:46;3.43;;;3.13;;
2129;SDS011;1071;52.544;13.374;2023-05-31T06:34:15;7.23;;;2.87;;
2129;SDS011;1071;52.544;13.374;2023-05-31T06:36:45;5.83;;;2.87;;
2129;SDS011;1071;52.544;13.374;2023-05-31T06:39:12;4.10;;;3.53;;
2129;SDS011;1071;52.544;13.374;2023-05-31T06:41:39;4.00;;;3.23;;
2129;SDS011;1071;52.544;13.374;2023-05-31T06:44:06;4.83;;;2.63;;
2129;SDS011;1071;52.544;13.374;2023-05-31T06:46:33;5.90;;;2.87;;
2129;SDS011;1071;52.544;13.374;2023-05-31T06:49:00;4.77;;;3.03;;
2129;SDS011;1071;52.544;13.374;2023-05-31T06:51:28;3.37;;;2.70;;
2129;SDS011;1071;52.544;13.374;2023-05-31T06:53:56;3.80;;;2.97;;
2129;SDS011;1071;52.544;13.374;2023-05-31T06:56:26;10.80;;;5.10;;
2129;SDS011;1071;52.544;13.374;2023-05-31T06:58:54;7.00;;;4.60;;
2129;SDS011;1071;52.544;13.374;2023-05-31T07:01:21;6.40;;;3.90;;
2129;SDS011;1071;52.544;13.374;2023-05-31T07:03:51;6.07;;;3.10;;
2129;SDS011;1071;52.544;13.374;2023-05-31T07:06:21;7.60;;;3.30;;
2129;SDS011;1071;52.544;13.374;2023-05-31T07:08:49;6.07;;;3.53;;
2129;SDS011;1071;52.544;13.374;2023-05-31T07:11:16;3.10;;;2.50;;
2129;SDS011;1071;52.544;13.374;2023-05-31T07:13:44;4.83;;;3.23;;
2129;SDS011;1071;52.544;13.374;2023-05-31T07:16:11;7.00;;;3.10;;
2129;SDS011;1071;52.544;13.374;2023-05-31T07:18:41;7.27;;;4.30;;
2129;SDS011;1071;52.544;13.374;2023-05-31T07:21:08;2.93;;;2.63;;
2129;SDS011;1071;52.544;13.374;2023-05-31T07:23:35;3.50;;;2.70;;
2129;SDS011;1071;52.544;13.374;2023-05-31T07:26:04;6.53;;;3.23;;
2129;SDS011;1071;52.544;13.374;2023-05-31T07:28:31;5.77;;;3.20;;
2129;SDS011;1071;52.544;13.374;2023-05-31T07:30:58;4.67;;;2.93;;
2129;SDS011;1071;52.544;13.374;2023-05-31T07:33:25;4.23;;;2.97;;
2129;SDS011;1071;52.544;13.374;2023-05-31T07:35:52;4.37;;;3.10;;
2129;SDS011;1071;52.544;13.374;2023-05-31T07:38:19;4.47;;;2.70;;
2129;SDS011;1071;52.544;13.374;2023-05-31T07:40:46;5.83;;;3.00;;
2129;SDS011;1071;52.544;13.374;2023-05-31T07:43:14;6.10;;;3.37;;
2129;SDS011;1071;52.544;13.374;2023-05-31T07:45:45;6.30;;;3.60;;
2129;SDS011;1071;52.544;13.374;2023-05-31T07:48:13;5.70;;;3.27;;
2129;SDS011;1071;52.544;13.374;2023-05-31T07:50:40;4.90;;;3.43;;
2129;SDS011;1071;52.544;13.374;2023-05-31T07:53:07;7.20;;;3.27;;
2129;SDS011;1071;52.544;13.374;2023-05-31T07:55:34;3.70;;;3.10;;
2129;SDS011;1071;52.544;13.374;2023-05-31T07:58:04;4.03;;;3.27;;
2129;SDS011;1071;52.544;13.374;2023-05-31T08:00:33;4.53;;;3.70;;
2129;SDS011;1071;52.544;13.374;2023-05-31T08:03:00;4.20;;;3.00;;
2129;SDS011;1071;52.544;13.374;2023-05-31T08:05:27;3.57;;;2.40;;
2129;SDS011;1071;52.544;13.374;2023-05-31T08:07:55;6.33;;;3.10;;
2129;SDS011;1071;52.544;13.374;2023-05-31T08:10:22;3.00;;;2.20;;
2129;SDS011;1071;52.544;13.374;2023-05-31T08:12:52;4.33;;;2.90;;
2129;SDS011;1071;52.544;13.374;2023-05-31T08:15:19;3.30;;;2.40;;
2129;SDS011;1071;52.544;13.374;2023-05-31T08:20:47;5.30;;;3.53;;
2129;SDS011;1071;52.544;13.374;2023-05-31T08:23:18;2.83;;;2.50;;
2129;SDS011;1071;52.544;13.374;2023-05-31T08:25:48;5.60;;;5.10;;
2129;SDS011;1071;52.544;13.374;2023-05-31T08:28:16;5.13;;;3.03;;
2129;SDS011;1071;52.544;13.374;2023-05-31T08:30:43;2.10;;;1.90;;
2129;SDS011;1071;52.544;13.374;2023-05-31T08:33:10;4.10;;;3.70;;
2129;SDS011;1071;52.544;13.374;2023-05-31T08:35:37;4.83;;;3.83;;
2129;SDS011;1071;52.544;13.374;2023-05-31T08:38:09;3.93;;;2.50;;
2129;SDS011;1071;52.544;13.374;2023-05-31T08:40:36;5.23;;;2.10;;
2129;SDS011;1071;52.544;13.374;2023-05-31T08:43:05;2.10;;;1.90;;
2129;SDS011;1071;52.544;13.374;2023-05-31T08:45:40;4.57;;;4.13;;
2129;SDS011;1071;52.544;13.374;2023-05-31T08:48:09;2.40;;;2.20;;
2129;SDS011;1071;52.544;13.374;2023-05-31T08:50:40;4.90;;;2.77;;
2129;SDS011;1071;52.544;13.374;2023-05-31T08:53:10;2.30;;;1.90;;
2129;SDS011;1071;52.544;13.374;2023-05-31T08:55:38;3.47;;;2.37;;
2129;SDS011;1071;52.544;13.374;2023-05-31T08:58:07;6.93;;;2.53;;
2129;SDS011;1071;52.544;13.374;2023-05-31T09:00:35;5.03;;;3.33;;
2129;SDS011;1071;52.544;13.374;2023-05-31T09:03:03;5.37;;;4.90;;
2129;SDS011;1071;52.544;13.374;2023-05-31T09:05:32;4.33;;;2.60;;
2129;SDS011;1071;52.544;13.374;2023-05-31T09:07:59;3.30;;;3.00;;
2129;SDS011;1071;52.544;13.374;2023-05-31T09:10:28;3.03;;;2.73;;
2129;SDS011;1071;52.544;13.374;2023-05-31T09:12:56;2.90;;;2.03;;
2129;SDS011;1071;52.544;13.374;2023-05-31T09:15:24;2.50;;;1.93;;
2129;SDS011;1071;52.544;13.374;2023-05-31T09:17:52;4.43;;;2.40;;
2129;SDS011;1071;52.544;13.374;2023-05-31T09:20:27;4.73;;;2.30;;
2129;SDS011;1071;52.544;13.374;2023-05-31T09:23:01;3.60;;;2.80;;
2129;SDS011;1071;52.544;13.374;2023-05-31T09:25:44;3.03;;;2.47;;
2129;SDS011;1071;52.544;13.374;2023-05-31T09:28:12;3.90;;;2.70;;
2129;SDS011;1071;52.544;13.374;2023-05-31T09:30:40;2.60;;;2.40;;
2129;SDS011;1071;52.544;13.374;2023-05-31T09:33:08;2.00;;;1.90;;
2129;SDS011;1071;52.544;13.374;2023-05-31T09:35:35;4.03;;;1.90;;
2129;SDS011;1071;52.544;13.374;2023-05-31T09:38:06;4.10;;;2.57;;
2129;SDS011;1071;52.544;13.374;2023-05-31T09:40:33;2.23;;;2.03;;
2129;SDS011;1071;52.544;13.374;2023-05-31T09:43:03;3.50;;;2.43;;
2129;SDS011;1071;52.544;13.374;2023-05-31T09:45:33;4.37;;;3.97;;
2129;SDS011;1071;52.544;13.374;2023-05-31T09:48:00;4.50;;;2.60;;
2129;SDS011;1071;52.544;13.374;2023-05-31T09:50:27;2.60;;;2.10;;
2129;SDS011;1071;52.544;13.374;2023-05-31T09:52:55;2.60;;;2.10;;
2129;SDS011;1071;52.544;13.374;2023-05-31T09:55:24;3.53;;;3.10;;
2129;SDS011;1071;52.544;13.374;2023-05-31T09:58:07;3.20;;;2.90;;
2129;SDS011;1071;52.544;13.374;2023-05-31T10:00:34;3.13;;;2.87;;
2129;SDS011;1071;52.544;13.374;2023-05-31T10:03:10;3.13;;;2.83;;
2129;SDS011;1071;52.544;13.374;2023-05-31T10:05:38;4.20;;;3.80;;
2129;SDS011;1071;52.544;13.374;2023-05-31T10:08:05;4.40;;;4.00;;
2129;SDS011;1071;52.544;13.374;2023-05-31T10:10:32;3.50;;;2.93;;
2129;SDS011;1071;52.544;13.374;2023-05-31T10:13:00;2.83;;;2.63;;
2129;SDS011;1071;52.544;13.374;2023-05-31T10:15:31;4.50;;;4.10;;
2129;SDS011;1071;52.544;13.374;2023-05-31T10:17:58;3.73;;;3.37;;
2129;SDS011;1071;52.544;13.374;2023-05-31T10:20:29;3.77;;;3.33;;
2129;SDS011;1071;52.544;13.374;2023-05-31T10:23:00;3.50;;;3.00;;
2129;SDS011;1071;52.544;13.374;2023-05-31T10:25:34;2.90;;;2.10;;
2129;SDS011;1071;52.544;13.374;2023-05-31T10:28:07;3.50;;;3.20;;
2129;SDS011;1071;52.544;13.374;2023-05-31T10:30:39;2.67;;;2.27;;
2129;SDS011;1071;52.544;13.374;2023-05-31T10:33:10;4.50;;;3.40;;
2129;SDS011;1071;52.544;13.374;2023-05-31T10:35:42;3.63;;;2.33;;
2129;SDS011;1071;52.544;13.374;2023-05-31T10:38:11;2.40;;;2.20;;
2129;SDS011;1071;52.544;13.374;2023-05-31T10:40:41;2.30;;;2.10;;
2129;SDS011;1071;52.544;13.374;2023-05-31T10:43:17;4.10;;;3.17;;
2129;SDS011;1071;52.544;13.374;2023-05-31T10:45:51;6.23;;;3.20;;
2129;SDS011;1071;52.544;13.374;2023-05-31T10:48:29;3.93;;;2.30;;
2129;SDS011;1071;52.544;13.374;2023-05-31T10:51:04;4.07;;;2.30;;
2129;SDS011;1071;52.544;13.374;2023-05-31T10:53:35;2.27;;;2.00;;
2129;SDS011;1071;52.544;13.374;2023-05-31T10:56:06;2.30;;;2.03;;
2129;SDS011;1071;52.544;13.374;2023-05-31T10:58:36;2.20;;;2.00;;
2129;SDS011;1071;52.544;13.374;2023-05-31T11:01:06;2.53;;;1.43;;
2129;SDS011;1071;52.544;13.374;2023-05-31T11:03:42;2.23;;;2.00;;
2129;SDS011;1071;52.544;13.374;2023-05-31T11:06:10;3.07;;;1.83;;
2129;SDS011;1071;52.544;13.374;2023-05-31T11:08:51;4.30;;;3.87;;
2129;SDS011;1071;52.544;13.374;2023-05-31T11:11:26;3.93;;;2.47;;
2129;SDS011;1071;52.544;13.374;2023-05-31T11:13:55;2.67;;;1.37;;
2129;SDS011;1071;52.544;13.374;2023-05-31T11:16:24;1.90;;;1.50;;
2129;SDS011;1071;52.544;13.374;2023-05-31T11:19:01;3.00;;;2.67;;
2129;SDS011;1071;52.544;13.374;2023-05-31T11:21:48;1.50;;;1.20;;
2129;SDS011;1071;52.544;13.374;2023-05-31T11:24:29;3.93;;;1.90;;
2129;SDS011;1071;52.544;13.374;2023-05-31T11:26:57;2.13;;;1.50;;
2129;SDS011;1071;52.544;13.374;2023-05-31T11:29:25;1.30;;;1.10;;
2129;SDS011;1071;52.544;13.374;2023-05-31T11:32:19;1.33;;;1.23;;
2129;SDS011;1071;52.544;13.374;2023-05-31T11:34:48;1.50;;;1.27;;
2129;SDS011;1071;52.544;13.374;2023-05-31T11:37:19;2.77;;;2.27;;
2129;SDS011;1071;52.544;13.374;2023-05-31T11:39:46;2.70;;;2.23;;
2129;SDS011;1071;52.544;13.374;2023-05-31T11:42:14;2.10;;;1.90;;
2129;SDS011;1071;52.544;13.374;2023-05-31T11:44:42;2.00;;;1.80;;
2129;SDS011;1071;52.544;13.374;2023-05-31T11:47:14;1.77;;;1.27;;
2129;SDS011;1071;52.544;13.374;2023-05-31T11:49:45;2.20;;;1.33;;
2129;SDS011;1071;52.544;13.374;2023-05-31T11:52:14;2.70;;;1.23;;
2129;SDS011;1071;52.544;13.374;2023-05-31T11:54:42;3.50;;;3.20;;
2129;SDS011;1071;52.544;13.374;2023-05-31T11:57:10;1.93;;;1.83;;
2129;SDS011;1071;52.544;13.374;2023-05-31T11:59:38;1.67;;;1.43;;
2129;SDS011;1071;52.544;13.374;2023-05-31T12:02:06;3.10;;;1.57;;
2129;SDS011;1071;52.544;13.374;2023-05-31T12:04:35;2.27;;;1.40;;
2129;SDS011;1071;52.544;13.374;2023-05-31T12:07:05;1.90;;;1.80;;
2129;SDS011;1071;52.544;13.374;2023-05-31T12:09:33;1.07;;;0.97;;
2129;SDS011;1071;52.544;13.374;2023-05-31T12:12:00;8.17;;;2.30;;
2129;SDS011;1071;52.544;13.374;2023-05-31T12:14:30;2.60;;;1.70;;
2129;SDS011;1071;52.544;13.374;2023-05-31T12:17:00;1.83;;;1.43;;
2129;SDS011;1071;52.544;13.374;2023-05-31T12:19:28;1.30;;;1.20;;
2129;SDS011;1071;52.544;13.374;2023-05-31T12:21:55;1.17;;;1.07;;
2129;SDS011;1071;52.544;13.374;2023-05-31T12:24:24;2.63;;;1.33;;
2129;SDS011;1071;52.544;13.374;2023-05-31T12:26:51;1.53;;;1.43;;
2129;SDS011;1071;52.544;13.374;2023-05-31T12:29:25;4.17;;;1.97;;
2129;SDS011;1071;52.544;13.374;2023-05-31T12:31:59;1.60;;;1.03;;
2129;SDS011;1071;52.544;13.374;2023-05-31T12:34:27;2.47;;;2.13;;
2129;SDS011;1071;52.544;13.374;2023-05-31T12:36:56;1.67;;;1.00;;
2129;SDS011;1071;52.544;13.374;2023-05-31T12:39:24;1.40;;;1.30;;
2129;SDS011;1071;52.544;13.374;2023-05-31T12:41:51;2.07;;;1.87;;
2129;SDS011;1071;52.544;13.374;2023-05-31T12:44:19;1.70;;;1.60;;
2129;SDS011;1071;52.544;13.374;2023-05-31T12:46:47;1.83;;;1.20;;
2129;SDS011;1071;52.544;13.374;2023-05-31T12:49:20;1.50;;;1.40;;
2129;SDS011;1071;52.544;13.374;2023-05-31T12:51:48;1.40;;;1.30;;
2129;SDS011;1071;52.544;13.374;2023-05-31T12:54:24;1.70;;;1.10;;
2129;SDS011;1071;52.544;13.374;2023-05-31T12:56:57;2.83;;;1.63;;
2129;SDS011;1071;52.544;13.374;2023-05-31T12:59:26;1.77;;;1.60;;
2129;SDS011;1071;52.544;13.374;2023-05-31T13:01:53;1.40;;;1.13;;
2129;SDS011;1071;52.544;13.374;2023-05-31T13:04:21;1.73;;;1.50;;
2129;SDS011;1071;52.544;13.374;2023-05-31T13:06:51;2.90;;;2.40;;
2129;SDS011;1071;52.544;13.374;2023-05-31T13:09:18;2.73;;;2.53;;
2129;SDS011;1071;52.544;13.374;2023-05-31T13:11:47;5.60;;;2.23;;
2129;SDS011;1071;52.544;13.374;2023-05-31T13:14:17;6.03;;;1.73;;
2129;SDS011;1071;52.544;13.374;2023-05-31T13:16:45;2.70;;;1.60;;
2129;SDS011;1071;52.544;13.374;2023-05-31T13:19:12;1.83;;;1.33;;
2129;SDS011;1071;52.544;13.374;2023-05-31T13:21:39;2.40;;;1.97;;
2129;SDS011;1071;52.544;13.374;2023-05-31T13:24:11;1.50;;;1.33;;
2129;SDS011;1071;52.544;13.374;2023-05-31T13:26:37;1.60;;;1.50;;
2129;SDS011;1071;52.544;13.374;2023-05-31T13:29:06;1.30;;;1.20;;
2129;SDS011;1071;52.544;13.374;2023-05-31T13:31:33;2.20;;;1.40;;
2129;SDS011;1071;52.544;13.374;2023-05-31T13:34:00;1.40;;;1.30;;
2129;SDS011;1071;52.544;13.374;2023-05-31T13:36:27;1.77;;;1.40;;
2129;SDS011;1071;52.544;13.374;2023-05-31T13:38:55;1.40;;;1.30;;
2129;SDS011;1071;52.544;13.374;2023-05-31T13:41:22;1.97;;;1.60;;
2129;SDS011;1071;52.544;13.374;2023-05-31T13:43:49;3.53;;;1.80;;
2129;SDS011;1071;52.544;13.374;2023-05-31T13:46:21;1.87;;;1.67;;
2129;SDS011;1071;52.544;13.374;2023-05-31T13:48:48;2.30;;;1.83;;
2129;SDS011;1071;52.544;13.374;2023-05-31T13:51:17;1.60;;;1.37;;
2129;SDS011;1071;52.544;13.374;2023-05-31T13:53:43;1.20;;;1.10;;
2129;SDS011;1071;52.544;13.374;2023-05-31T13:56:10;1.30;;;1.20;;
2129;SDS011;1071;52.544;13.374;2023-05-31T13:58:37;2.00;;;1.73;;
2129;SDS011;1071;52.544;13.374;2023-05-31T14:01:05;2.23;;;1.70;;
2129;SDS011;1071;52.544;13.374;2023-05-31T14:03:34;3.80;;;2.10;;
2129;SDS011;1071;52.544;13.374;2023-05-31T14:06:01;1.90;;;1.50;;
2129;SDS011;1071;52.544;13.374;2023-05-31T14:08:27;1.83;;;1.73;;
2129;SDS011;1071;52.544;13.374;2023-05-31T14:10:57;1.70;;;1.43;;
2129;SDS011;1071;52.544;13.374;2023-05-31T14:13:24;1.90;;;1.80;;
2129;SDS011;1071;52.544;13.374;2023-05-31T14:15:51;2.33;;;1.53;;
2129;SDS011;1071;52.544;13.374;2023-05-31T14:18:19;2.37;;;1.50;;
2129;SDS011;1071;52.544;13.374;2023-05-31T14:20:49;1.30;;;1.20;;
2129;SDS011;1071;52.544;13.374;2023-05-31T14:23:16;1.47;;;1.37;;
2129;SDS011;1071;52.544;13.374;2023-05-31T14:25:43;1.20;;;1.10;;
2129;SDS011;1071;52.544;13.374;2023-05-31T14:28:10;2.20;;;1.17;;
2129;SDS011;1071;52.544;13.374;2023-05-31T14:30:38;2.30;;;1.27;;
2129;SDS011;1071;52.544;13.374;2023-05-31T14:33:08;2.20;;;1.73;;
2129;SDS011;1071;52.544;13.374;2023-05-31T14:35:36;1.77;;;1.67;;
2129;SDS011;1071;52.544;13.374;2023-05-31T14:38:04;2.23;;;1.70;;
2129;SDS011;1071;52.544;13.374;2023-05-31T14:40:32;2.17;;;1.97;;
2129;SDS011;1071;52.544;13.374;2023-05-31T14:42:58;2.20;;;2.00;;
2129;SDS011;1071;52.544;13.374;2023-05-31T14:45:25;1.90;;;1.80;;
2129;SDS011;1071;52.544;13.374;2023-05-31T14:47:52;1.50;;;1.40;;
2129;SDS011;1071;52.544;13.374;2023-05-31T14:50:24;1.57;;;1.40;;
2129;SDS011;1071;52.544;13.374;2023-05-31T14:52:59;1.20;;;1.10;;
2129;SDS011;1071;52.544;13.374;2023-05-31T14:55:27;1.60;;;1.50;;
2129;SDS011;1071;52.544;13.374;2023-05-31T14:57:56;1.40;;;1.30;;
2129;SDS011;1071;52.544;13.374;2023-05-31T15:00:26;1.30;;;1.17;;
2129;SDS011;1071;52.544;13.374;2023-05-31T15:02:54;1.80;;;1.20;;
2129;SDS011;1071;52.544;13.374;2023-05-31T15:05:23;1.63;;;1.53;;
2129;SDS011;1071;52.544;13.374;2023-05-31T15:07:50;1.53;;;1.43;;
2129;SDS011;1071;52.544;13.374;2023-05-31T15:10:21;2.63;;;1.60;;
2129;SDS011;1071;52.544;13.374;2023-05-31T15:12:52;3.43;;;1.60;;
2129;SDS011;1071;52.544;13.374;2023-05-31T15:15:21;1.83;;;1.33;;